Terminal Aerodrome Forecast
Issued by NWS Houston/Galveston, TX

Home | Current Version | Previous Version | Text Only | Print | Product List | Glossary On
Versions: 1 2 3 4 5 6 7 8 9 10 11 12 13 14 15 16 17 18 19 20 21 22 23 24
000
FTUS44 KHGX 212336
TAFCLL
TAF
KCLL 212336Z 2200/2224 15011KT P6SM SKC
     FM220200 15006KT P6SM BKN250
     FM220900 15003KT 6SM BR SCT015
      TEMPO 2211/2213 4SM BR BKN015
     FM221500 15007KT P6SM BKN025
     FM221900 14008KT P6SM VCSH BKN035=

USA.gov is the U.S. government's official web portal to all federal, state and local government web resources and services.